Time;durP1;ratioP1;P1;durP2;ratioP2;P2;SDS_P1;SDS_P2;PMS_P1;PMS_P2;Temp;Humidity;BMP_temperature;BMP_pressure;BME280_temperature;BME280_humidity;BME280_pressure;Samples;Min_cycle;Max_cycle;Signal;HPM_P1;HPM_P2
2022/01/24 00:00:15;;;;;;;;;;;;;;;17.37;31.96;101543.13;5059235;28;1164;-56
2022/01/24 00:02:43;;;;;;;;;;;;;;;16.71;33.41;101560.50;5060768;28;1374;-58
2022/01/24 00:05:09;;;;;;;;;;;;;;;16.23;34.30;101551.09;5058522;28;810;-57
2022/01/24 00:07:35;;;;;;;;;;;;;;;15.95;34.59;101565.72;5058366;28;1036;-57
2022/01/24 00:10:04;;;;;;;;;;;;;;;15.58;35.51;101567.00;5060653;28;820;-57
2022/01/24 00:28:03;;;;;;;;;;;;;;;16.00;34.48;101574.06;5059624;28;802;-57
2022/01/24 00:30:29;;;;;;;;;;;;;;;16.38;33.80;101576.00;5058551;28;854;-57
2022/01/24 00:32:54;;;;;;;;;;;;;;;16.15;34.27;101566.06;5039764;28;1249;-57
2022/01/24 00:35:20;;;;;;;;;;;;;;;15.94;34.60;101575.88;5058864;28;1977;-57
2022/01/24 00:37:45;;;;;;;;;;;;;;;15.59;35.27;101584.31;5072644;28;938;-57
2022/01/24 00:40:11;;;;;;;;;;;;;;;15.90;34.55;101569.22;5065837;28;819;-56
2022/01/24 00:42:56;;;;;;;;;;;;;;;16.41;33.53;101575.50;5057735;28;773;-56
2022/01/24 00:56:09;;;;;;;;;;;;;;;15.99;34.39;101597.91;5056054;28;1963;-56
2022/01/24 00:58:35;;;;;;;;;;;;;;;16.17;34.31;101585.84;5057799;28;766;-56
2022/01/24 01:01:00;;;;;;;;;;;;;;;16.04;34.37;101600.72;5057499;28;873;-56
2022/01/24 01:03:26;;;;;;;;;;;;;;;15.88;34.55;101591.44;5058923;28;828;-57
2022/01/24 01:06:04;;;;;;;;;;;;;;;15.95;34.63;101588.53;5057948;28;809;-56
2022/01/24 01:19:26;;;;;;;;;;;;;;;15.51;35.40;101594.56;5068342;28;885;-57
2022/01/24 01:21:51;;;;;;;;;;;;;;;15.72;34.75;101594.94;5057928;28;953;-57
2022/01/24 01:24:18;;;;;;;;;;;;;;;16.02;34.42;101597.41;5057082;28;919;-57
2022/01/24 01:26:52;;;;;;;;;;;;;;;16.36;33.64;101608.34;5055036;28;817;-57
2022/01/24 01:29:26;;;;;;;;;;;;;;;15.82;34.59;101605.28;5076800;28;809;-57
2022/01/24 01:56:07;;;;;;;;;;;;;;;15.77;34.53;101607.91;5054028;28;1988;-57
2022/01/24 01:58:33;;;;;;;;;;;;;;;15.89;34.31;101600.47;5056733;28;1473;-55
2022/01/24 02:00:59;;;;;;;;;;;;;;;15.80;34.72;101597.31;5038939;28;2209;-55
2022/01/24 02:03:25;;;;;;;;;;;;;;;15.98;34.02;101628.34;5056719;28;794;-55
2022/01/24 02:05:50;;;;;;;;;;;;;;;16.44;33.49;101623.56;5049862;28;825;-55
2022/01/24 02:08:17;;;;;;;;;;;;;;;16.19;33.76;101618.53;5057143;28;833;-55
2022/01/24 02:10:43;;;;;;;;;;;;;;;16.19;33.77;101610.31;5064749;28;944;-55
2022/01/24 02:13:09;;;;;;;;;;;;;;;15.83;34.35;101618.75;5075868;28;980;-56
2022/01/24 02:15:51;;;;;;;;;;;;;;;16.03;33.97;101618.28;5075885;28;1914;-56
2022/01/24 02:18:32;;;;;;;;;;;;;;;16.28;33.58;101614.25;5064116;28;842;-55
2022/01/24 02:21:26;;;;;;;;;;;;;;;16.02;33.89;101626.75;5056959;28;842;-55
2022/01/24 02:23:58;;;;;;;;;;;;;;;15.59;34.69;101618.03;5043260;28;782;-56
2022/01/24 02:26:24;;;;;;;;;;;;;;;15.59;34.68;101629.00;5054461;28;940;-56
2022/01/24 02:29:16;;;;;;;;;;;;;;;15.96;34.00;101620.34;5056624;28;781;-56
2022/01/24 02:31:47;;;;;;;;;;;;;;;16.36;33.14;101633.06;5051970;28;846;-56
2022/01/24 02:34:20;;;;;;;;;;;;;;;15.78;34.29;101635.09;5075776;28;733;-57
2022/01/24 02:36:48;;;;;;;;;;;;;;;15.61;34.65;101642.47;5075790;28;1984;-56
2022/01/24 02:50:20;;;;;;;;;;;;;;;15.93;33.77;101651.00;5064905;28;1012;-55
2022/01/24 02:52:46;;;;;;;;;;;;;;;16.01;33.64;101639.63;5056029;28;1107;-56
2022/01/24 02:55:11;;;;;;;;;;;;;;;16.21;33.34;101649.28;5051708;28;937;-56
2022/01/24 02:57:36;;;;;;;;;;;;;;;16.02;33.62;101646.78;5063758;28;2063;-56
2022/01/24 03:00:02;;;;;;;;;;;;;;;15.57;34.67;101648.44;5079705;28;787;-56
2022/01/24 03:02:30;;;;;;;;;;;;;;;15.72;34.28;101641.56;5079074;28;845;-57
2022/01/24 03:04:57;;;;;;;;;;;;;;;16.01;33.86;101655.28;5079786;28;758;-57
2022/01/24 03:07:23;;;;;;;;;;;;;;;15.81;33.99;101647.50;5079891;28;839;-56
2022/01/24 03:09:49;;;;;;;;;;;;;;;15.67;34.21;101661.50;5065500;28;780;-56
2022/01/24 03:12:26;;;;;;;;;;;;;;;15.55;34.54;101658.81;5078109;28;863;-56
2022/01/24 03:14:51;;;;;;;;;;;;;;;15.47;34.65;101663.84;5059846;28;893;-56
2022/01/24 03:17:17;;;;;;;;;;;;;;;15.92;33.66;101665.78;5059402;28;1902;-56
2022/01/24 03:19:42;;;;;;;;;;;;;;;16.74;32.30;101683.59;5059970;28;751;-55
2022/01/24 03:22:11;;;;;;;;;;;;;;;16.15;33.49;101685.97;5056610;28;846;-56
2022/01/24 03:24:39;;;;;;;;;;;;;;;15.72;34.31;101678.06;5072716;28;1015;-56
2022/01/24 03:27:04;;;;;;;;;;;;;;;15.60;34.57;101685.50;5059902;28;842;-54
2022/01/24 03:29:30;;;;;;;;;;;;;;;15.74;34.32;101686.03;5059602;28;778;-55
2022/01/24 03:31:55;;;;;;;;;;;;;;;15.87;33.77;101685.75;5059076;28;873;-56
2022/01/24 03:34:21;;;;;;;;;;;;;;;16.43;33.08;101705.09;5059531;28;849;-56
2022/01/24 03:36:46;;;;;;;;;;;;;;;15.98;33.71;101700.50;5078245;28;1987;-56
2022/01/24 03:39:12;;;;;;;;;;;;;;;15.73;33.89;101696.16;5075610;28;840;-55
2022/01/24 03:41:39;;;;;;;;;;;;;;;15.70;34.23;101701.31;5059546;28;1386;-54
2022/01/24 03:44:05;;;;;;;;;;;;;;;16.08;33.64;101714.38;5074021;28;983;-55
2022/01/24 03:46:46;;;;;;;;;;;;;;;16.50;32.92;101709.59;5076174;28;768;-55
2022/01/24 03:49:44;;;;;;;;;;;;;;;16.11;33.71;101714.97;5057102;28;969;-56
2022/01/24 03:51:57;;;;;;;;;;;;;;;15.63;34.52;101712.41;5071801;28;1448;-56
2022/01/24 03:54:22;;;;;;;;;;;;;;;15.54;34.71;101719.34;5056956;28;875;-56
2022/01/24 03:56:48;;;;;;;;;;;;;;;15.48;34.79;101720.34;5076047;28;1902;-55
2022/01/24 03:59:13;;;;;;;;;;;;;;;15.74;34.31;101728.00;5076876;28;847;-56
2022/01/24 04:01:39;;;;;;;;;;;;;;;15.64;34.23;101741.50;5056987;28;853;-55
2022/01/24 04:04:04;;;;;;;;;;;;;;;15.51;34.61;101723.41;5058973;28;866;-56
2022/01/24 04:06:29;;;;;;;;;;;;;;;15.39;34.76;101728.13;5058806;28;830;-56
2022/01/24 04:08:55;;;;;;;;;;;;;;;16.05;33.74;101736.00;5057302;28;814;-54
2022/01/24 04:11:21;;;;;;;;;;;;;;;17.70;30.83;101727.47;5072684;28;981;-55
2022/01/24 04:13:56;;;;;;;;;;;;;;;17.75;30.78;101731.09;5056673;28;778;-56
2022/01/24 04:16:31;;;;;;;;;;;;;;;18.46;29.72;101741.13;5058591;28;1917;-57
2022/01/24 04:21:46;;;;;;;;;;;;;;;16.58;32.64;101742.13;5058812;28;766;-56
2022/01/24 04:24:18;;;;;;;;;;;;;;;16.36;33.08;101747.50;5053058;28;782;-52
2022/01/24 04:26:43;;;;;;;;;;;;;;;15.63;34.57;101739.03;5057634;28;878;-48
2022/01/24 04:29:09;;;;;;;;;;;;;;;15.62;34.30;101751.88;5058892;28;821;-48
2022/01/24 04:31:34;;;;;;;;;;;;;;;15.96;34.10;101762.97;5060023;28;1156;-45
2022/01/24 04:34:00;;;;;;;;;;;;;;;16.13;33.57;101759.44;5058335;28;818;-49
2022/01/24 04:36:25;;;;;;;;;;;;;;;16.10;33.37;101758.03;5078175;28;1913;-48
2022/01/24 04:38:51;;;;;;;;;;;;;;;16.13;33.40;101770.41;5058678;28;849;-48
2022/01/24 04:41:20;;;;;;;;;;;;;;;16.03;33.69;101760.09;5054395;28;828;-46
2022/01/24 04:43:55;;;;;;;;;;;;;;;15.97;33.75;101772.06;5061759;28;1410;-51
2022/01/24 04:56:30;;;;;;;;;;;;;;;15.67;34.47;101787.63;5068849;28;1901;-48
2022/01/24 04:58:55;;;;;;;;;;;;;;;16.12;33.54;101801.69;5062396;28;1350;-51
2022/01/24 05:01:26;;;;;;;;;;;;;;;16.06;33.43;101798.84;5073780;28;1382;-50
2022/01/24 05:03:51;;;;;;;;;;;;;;;16.00;33.84;101799.81;5062228;28;933;-50
2022/01/24 05:06:17;;;;;;;;;;;;;;;16.26;33.38;101792.09;5066562;28;882;-48
2022/01/24 05:08:42;;;;;;;;;;;;;;;16.45;32.84;101816.56;5076941;28;948;-50
2022/01/24 05:11:12;;;;;;;;;;;;;;;16.69;32.47;101812.59;5057795;28;871;-51
2022/01/24 05:24:34;;;;;;;;;;;;;;;16.05;33.61;101819.13;5069687;28;886;-48
2022/01/24 05:27:02;;;;;;;;;;;;;;;16.23;33.21;101820.84;5073845;28;822;-50
2022/01/24 05:29:27;;;;;;;;;;;;;;;16.09;33.38;101819.50;5061456;28;801;-53
2022/01/24 05:31:55;;;;;;;;;;;;;;;15.99;33.54;101836.59;5057187;28;770;-48
2022/01/24 05:34:21;;;;;;;;;;;;;;;16.08;33.66;101832.34;5057678;28;894;-50
2022/01/24 05:36:47;;;;;;;;;;;;;;;16.29;33.13;101813.53;5057153;28;1902;-52
2022/01/24 05:39:12;;;;;;;;;;;;;;;17.25;31.52;101831.06;5056358;28;895;-48
2022/01/24 05:41:38;;;;;;;;;;;;;;;18.54;29.60;101854.69;5061596;28;846;-51
2022/01/24 05:44:04;;;;;;;;;;;;;;;18.46;29.45;101856.81;5056686;28;813;-51
2022/01/24 05:46:29;;;;;;;;;;;;;;;18.88;28.75;101858.03;5057102;28;821;-50
2022/01/24 05:48:55;;;;;;;;;;;;;;;18.33;29.93;101872.91;5057376;28;935;-49
2022/01/24 05:51:21;;;;;;;;;;;;;;;17.31;31.22;101868.56;5070902;28;1104;-51
2022/01/24 05:53:46;;;;;;;;;;;;;;;16.75;32.67;101872.03;5075147;28;1014;-52
2022/01/24 05:56:12;;;;;;;;;;;;;;;16.42;32.86;101859.91;5053443;28;1918;-50
2022/01/24 05:58:38;;;;;;;;;;;;;;;17.27;31.77;101868.22;5056955;28;1020;-53
2022/01/24 06:01:04;;;;;;;;;;;;;;;18.93;29.13;101860.03;5056899;28;875;-50
2022/01/24 06:03:30;;;;;;;;;;;;;;;18.66;29.31;101877.38;5056592;28;814;-49
2022/01/24 06:05:55;;;;;;;;;;;;;;;19.29;28.33;101869.41;5056742;28;850;-50
2022/01/24 06:08:20;;;;;;;;;;;;;;;18.90;29.10;101877.06;5062664;28;893;-52
2022/01/24 06:10:47;;;;;;;;;;;;;;;17.90;30.75;101887.25;5060243;28;874;-52
2022/01/24 06:13:13;;;;;;;;;;;;;;;17.25;31.53;101869.53;5056361;28;952;-52
2022/01/24 06:15:38;;;;;;;;;;;;;;;16.74;32.47;101884.06;5056521;28;1988;-51
2022/01/24 06:18:04;;;;;;;;;;;;;;;16.33;33.30;101879.78;5057085;28;774;-49
2022/01/24 06:20:29;;;;;;;;;;;;;;;17.20;32.07;101889.56;5061223;28;979;-49
2022/01/24 06:22:58;;;;;;;;;;;;;;;19.02;28.91;101899.78;5075445;28;856;-51
2022/01/24 06:25:24;;;;;;;;;;;;;;;18.85;29.22;101907.34;5068267;28;867;-49
2022/01/24 06:27:50;;;;;;;;;;;;;;;19.59;28.11;101894.69;5074517;28;1421;-49
2022/01/24 06:30:16;;;;;;;;;;;;;;;19.28;28.30;101894.50;5075043;28;881;-52
2022/01/24 06:32:41;;;;;;;;;;;;;;;17.93;30.70;101905.19;5068016;28;831;-51
2022/01/24 06:35:07;;;;;;;;;;;;;;;17.52;31.33;101907.38;5056229;28;834;-50
2022/01/24 06:37:33;;;;;;;;;;;;;;;16.91;32.28;101914.38;5036890;28;1906;-60
2022/01/24 06:39:58;;;;;;;;;;;;;;;16.47;33.26;101900.34;5063742;28;1556;-61
2022/01/24 06:42:26;;;;;;;;;;;;;;;16.84;32.50;101912.81;5068551;28;1282;-60
2022/01/24 06:44:52;;;;;;;;;;;;;;;17.39;31.77;101916.78;5054343;28;803;-60
2022/01/24 06:47:18;;;;;;;;;;;;;;;17.19;31.98;101909.03;5068777;28;822;-61
2022/01/24 06:49:43;;;;;;;;;;;;;;;17.04;32.37;101907.72;5063813;28;1416;-60
2022/01/24 06:52:09;;;;;;;;;;;;;;;16.90;32.82;101907.22;5054516;28;1175;-61
2022/01/24 06:54:37;;;;;;;;;;;;;;;17.03;32.25;101905.22;5040367;28;1390;-59
2022/01/24 06:57:02;;;;;;;;;;;;;;;17.29;32.11;101914.69;5050871;28;1917;-60
2022/01/24 06:59:28;;;;;;;;;;;;;;;16.89;32.80;101922.00;5049925;28;1291;-61
2022/01/24 07:01:53;;;;;;;;;;;;;;;16.64;32.87;101908.63;5070358;28;1516;-61
2022/01/24 07:04:19;;;;;;;;;;;;;;;16.44;33.20;101925.56;5063384;28;1188;-62
2022/01/24 07:06:44;;;;;;;;;;;;;;;16.84;32.88;101904.56;5060826;28;1615;-65
2022/01/24 07:09:10;;;;;;;;;;;;;;;18.08;30.66;101910.91;5053175;28;1375;-65
2022/01/24 07:11:35;;;;;;;;;;;;;;;18.53;29.77;101917.19;5053508;28;1043;-65
2022/01/24 07:14:05;;;;;;;;;;;;;;;18.75;29.61;101919.91;5055555;28;878;-65
2022/01/24 07:16:48;;;;;;;;;;;;;;;18.89;29.33;101919.53;5056051;28;1910;-65
2022/01/24 07:19:14;;;;;;;;;;;;;;;18.94;29.15;101905.78;5038032;28;832;-65
2022/01/24 07:21:39;;;;;;;;;;;;;;;19.06;28.83;101920.22;5055423;28;1279;-65
2022/01/24 07:24:05;;;;;;;;;;;;;;;19.18;28.60;101922.81;5053069;28;1425;-64
2022/01/24 07:26:30;;;;;;;;;;;;;;;19.32;28.61;101920.41;5050947;28;1058;-59
2022/01/24 07:28:56;;;;;;;;;;;;;;;19.79;27.67;101918.78;5055415;28;1152;-60
2022/01/24 07:31:22;;;;;;;;;;;;;;;19.29;28.36;101937.50;5062336;28;1406;-59
2022/01/24 07:33:47;;;;;;;;;;;;;;;19.79;27.90;101927.06;5056814;28;1346;-59
2022/01/24 07:36:12;;;;;;;;;;;;;;;19.49;28.19;101923.88;5068776;28;1906;-59
2022/01/24 07:38:38;;;;;;;;;;;;;;;18.24;30.15;101928.47;5075230;28;825;-60
2022/01/24 07:41:03;;;;;;;;;;;;;;;17.63;31.04;101911.94;5055911;28;1173;-59
2022/01/24 07:43:29;;;;;;;;;;;;;;;17.02;32.02;101936.53;5064342;28;1246;-59
2022/01/24 07:45:55;;;;;;;;;;;;;;;16.69;32.53;101916.97;5059108;28;1211;-58
2022/01/24 07:48:20;;;;;;;;;;;;;;;16.81;32.55;101927.88;5059150;28;1488;-59
2022/01/24 07:50:46;;;;;;;;;;;;;;;16.88;32.26;101914.84;5058287;28;883;-59
2022/01/24 07:53:12;;;;;;;;;;;;;;;17.00;31.98;101916.69;5058938;28;1119;-59
2022/01/24 07:55:41;;;;;;;;;;;;;;;16.66;32.58;101928.44;5064386;28;1981;-59
2022/01/24 07:58:06;;;;;;;;;;;;;;;16.56;32.86;101945.56;5035218;28;1176;-59
2022/01/24 08:00:32;;;;;;;;;;;;;;;18.65;29.05;101939.09;5060368;28;1416;-58
2022/01/24 08:03:00;;;;;;;;;;;;;;;19.12;28.60;101943.16;5058032;28;1709;-58
2022/01/24 08:05:25;;;;;;;;;;;;;;;19.54;27.99;101942.38;5058330;28;1426;-59
2022/01/24 08:07:51;;;;;;;;;;;;;;;19.28;28.41;101939.44;5060066;28;1339;-63
2022/01/24 08:10:17;;;;;;;;;;;;;;;18.17;30.18;101930.53;5056591;28;1260;-61
2022/01/24 08:12:44;;;;;;;;;;;;;;;17.55;30.82;101926.09;5058033;28;1143;-63
2022/01/24 08:15:12;;;;;;;;;;;;;;;16.95;31.89;101946.84;5052219;28;978;-62
2022/01/24 08:17:37;;;;;;;;;;;;;;;16.77;32.39;101954.16;5057139;28;1909;-61
2022/01/24 08:20:05;;;;;;;;;;;;;;;17.12;31.80;101936.69;5064598;28;1671;-61
2022/01/24 08:22:31;;;;;;;;;;;;;;;17.22;31.36;101964.38;5058767;28;1353;-60
2022/01/24 08:24:56;;;;;;;;;;;;;;;16.74;32.30;101963.72;5053665;28;1358;-60
2022/01/24 08:27:24;;;;;;;;;;;;;;;16.68;32.39;101953.75;5058565;28;1256;-60
2022/01/24 08:29:50;;;;;;;;;;;;;;;16.87;32.09;101970.00;5054909;28;1319;-63
2022/01/24 08:32:15;;;;;;;;;;;;;;;17.20;31.42;101960.19;5073911;28;857;-61
2022/01/24 08:34:41;;;;;;;;;;;;;;;16.91;31.80;101955.59;5066846;28;1531;-61
2022/01/24 08:37:06;;;;;;;;;;;;;;;16.48;32.55;101970.66;5069156;28;1980;-61
2022/01/24 08:39:32;;;;;;;;;;;;;;;16.57;32.62;101965.63;5057016;28;1093;-61
2022/01/24 08:42:08;;;;;;;;;;;;;;;16.61;32.36;101966.78;5054452;28;1035;-59
2022/01/24 08:47:18;;;;;;;;;;;;;;;17.13;31.27;101959.53;5061562;28;1350;-59
2022/01/24 08:49:43;;;;;;;;;;;;;;;16.91;31.52;101960.22;5069147;28;1449;-62
2022/01/24 08:52:09;;;;;;;;;;;;;;;16.60;32.37;101962.38;5070528;28;1252;-58
2022/01/24 08:54:34;;;;;;;;;;;;;;;16.84;32.14;101976.00;5062996;28;1566;-59
2022/01/24 08:57:00;;;;;;;;;;;;;;;16.60;32.27;101989.81;5062218;28;1905;-59
2022/01/24 08:59:26;;;;;;;;;;;;;;;17.95;30.27;101983.66;5074379;28;1464;-59
2022/01/24 09:01:51;;;;;;;;;;;;;;;19.17;28.07;101976.28;5061280;28;1535;-62
2022/01/24 09:04:19;;;;;;;;;;;;;;;18.53;29.25;101983.31;5060428;28;1374;-61
2022/01/24 09:06:44;;;;;;;;;;;;;;;18.93;28.62;101981.31;5066823;28;842;-61
2022/01/24 09:09:10;;;;;;;;;;;;;;;19.23;28.13;101988.19;5054903;28;1269;-60
2022/01/24 09:11:35;;;;;;;;;;;;;;;19.76;27.17;101980.06;5052903;28;1151;-61
2022/01/24 09:14:02;;;;;;;;;;;;;;;19.38;28.10;101973.72;5065641;28;1244;-62
2022/01/24 09:16:30;;;;;;;;;;;;;;;19.15;28.40;101981.22;5060993;28;1914;-62
2022/01/24 09:18:56;;;;;;;;;;;;;;;18.18;29.75;101975.44;5062686;28;795;-62
2022/01/24 09:21:21;;;;;;;;;;;;;;;19.00;28.44;101992.94;5073515;28;1472;-65
2022/01/24 09:23:47;;;;;;;;;;;;;;;19.44;27.63;101990.03;5055113;28;1294;-60
2022/01/24 09:26:12;;;;;;;;;;;;;;;19.90;27.24;101985.97;5051395;28;1588;-61
2022/01/24 09:28:38;;;;;;;;;;;;;;;19.60;27.52;101991.00;5063949;28;1299;-62
2022/01/24 09:31:03;;;;;;;;;;;;;;;19.56;27.80;101986.25;5051809;28;1370;-59
2022/01/24 09:33:29;;;;;;;;;;;;;;;18.51;29.45;101985.50;5057587;28;893;-58
2022/01/24 09:35:59;;;;;;;;;;;;;;;17.83;30.43;101984.84;5055949;28;1906;-59
2022/01/24 09:38:25;;;;;;;;;;;;;;;17.14;31.33;101966.66;5058400;28;1227;-58
2022/01/24 09:40:50;;;;;;;;;;;;;;;16.83;31.97;101969.69;5064293;28;1303;-58
2022/01/24 09:43:16;;;;;;;;;;;;;;;16.62;32.77;101982.19;5068744;28;1421;-59
2022/01/24 09:45:41;;;;;;;;;;;;;;;17.10;31.67;101980.91;5056639;28;1441;-61
2022/01/24 09:48:08;;;;;;;;;;;;;;;17.89;30.29;101984.66;5058498;28;1601;-59
2022/01/24 09:50:34;;;;;;;;;;;;;;;17.50;31.23;101983.78;5053186;28;1240;-59
2022/01/24 09:52:59;;;;;;;;;;;;;;;17.04;31.95;101973.66;5069623;28;1365;-60
2022/01/24 09:55:25;;;;;;;;;;;;;;;16.83;32.52;101979.81;5058450;28;1192;-59
2022/01/24 09:57:51;;;;;;;;;;;;;;;16.94;32.15;101981.72;5051866;28;1906;-59
2022/01/24 10:00:17;;;;;;;;;;;;;;;17.53;31.40;101980.50;5055998;28;1374;-60
2022/01/24 10:02:43;;;;;;;;;;;;;;;17.63;31.05;101983.44;5057057;28;805;-59
2022/01/24 10:05:25;;;;;;;;;;;;;;;17.14;31.87;101977.66;5052234;28;1445;-58
2022/01/24 10:07:51;;;;;;;;;;;;;;;16.90;32.23;101973.16;5049424;28;1177;-58
2022/01/24 10:10:25;;;;;;;;;;;;;;;16.97;32.21;101992.22;5047991;28;1223;-58
2022/01/24 10:18:00;;;;;;;;;;;;;;;16.73;32.22;102002.44;5060627;28;1110;-59
2022/01/24 10:20:30;;;;;;;;;;;;;;;16.66;32.59;102021.81;5066191;28;1291;-59
2022/01/24 10:23:06;;;;;;;;;;;;;;;16.80;32.18;102018.78;5050546;28;1659;-59
2022/01/24 10:25:32;;;;;;;;;;;;;;;16.90;32.15;102022.59;5048926;28;1630;-59
2022/01/24 10:28:04;;;;;;;;;;;;;;;17.25;31.51;102034.47;5060580;28;1119;-58
2022/01/24 10:30:29;;;;;;;;;;;;;;;17.29;31.57;102035.66;5063235;28;1288;-59
2022/01/24 10:32:56;;;;;;;;;;;;;;;17.35;31.50;102029.19;5057973;28;1369;-59
2022/01/24 10:35:24;;;;;;;;;;;;;;;17.13;31.80;102041.97;5061618;28;1440;-59
2022/01/24 10:37:53;;;;;;;;;;;;;;;17.12;32.05;102040.31;5055348;28;1902;-60
2022/01/24 10:40:46;;;;;;;;;;;;;;;17.22;31.97;102048.72;5052759;28;1264;-58
2022/01/24 10:43:15;;;;;;;;;;;;;;;17.22;32.01;102076.22;5067287;28;1390;-58
2022/01/24 10:45:44;;;;;;;;;;;;;;;17.47;31.36;102066.78;5059089;28;1277;-57
2022/01/24 10:48:10;;;;;;;;;;;;;;;17.56;31.38;102077.13;5052178;28;1284;-58
2022/01/24 10:50:35;;;;;;;;;;;;;;;17.17;32.10;102078.88;5055607;28;1347;-58
2022/01/24 10:53:13;;;;;;;;;;;;;;;16.84;32.34;102072.16;5049625;28;1006;-58
2022/01/24 10:55:39;;;;;;;;;;;;;;;16.86;32.37;102081.00;5051021;28;1973;-58
2022/01/24 10:58:09;;;;;;;;;;;;;;;17.11;32.20;102083.44;5055138;28;1350;-58
2022/01/24 11:00:34;;;;;;;;;;;;;;;17.83;30.88;102087.47;5061755;28;865;-58
2022/01/24 11:03:00;;;;;;;;;;;;;;;17.19;31.86;102090.47;5074563;28;815;-58
2022/01/24 11:05:27;;;;;;;;;;;;;;;17.03;32.22;102098.41;5055199;28;1261;-58
2022/01/24 11:07:54;;;;;;;;;;;;;;;16.91;32.57;102097.59;5061666;28;1347;-58
2022/01/24 11:10:20;;;;;;;;;;;;;;;17.19;31.94;102093.19;5059328;28;1247;-58
2022/01/24 11:12:45;;;;;;;;;;;;;;;17.51;31.51;102093.53;5063208;28;1224;-59
2022/01/24 11:15:11;;;;;;;;;;;;;;;17.19;32.19;102106.94;5068707;28;1560;-58
2022/01/24 11:17:37;;;;;;;;;;;;;;;17.12;32.29;102109.84;5068219;28;1966;-57
2022/01/24 11:20:03;;;;;;;;;;;;;;;17.01;32.40;102106.06;5059140;28;1544;-58
2022/01/24 11:22:31;;;;;;;;;;;;;;;17.14;32.31;102129.69;5058187;28;1251;-58
2022/01/24 11:25:03;;;;;;;;;;;;;;;17.36;32.18;102102.34;5056477;28;1192;-55
2022/01/24 11:27:28;;;;;;;;;;;;;;;17.61;31.60;102112.13;5052611;28;1355;-57
2022/01/24 11:29:55;;;;;;;;;;;;;;;17.50;31.97;102113.03;5062074;28;880;-58
2022/01/24 11:32:24;;;;;;;;;;;;;;;17.32;32.09;102105.81;5049907;28;1188;-59
2022/01/24 11:34:50;;;;;;;;;;;;;;;17.03;32.52;102114.88;5071721;28;1413;-58
2022/01/24 11:37:30;;;;;;;;;;;;;;;17.24;32.29;102110.63;5072593;28;1902;-59
2022/01/24 11:39:56;;;;;;;;;;;;;;;17.89;31.15;102110.38;5054379;28;1255;-61
2022/01/24 11:42:32;;;;;;;;;;;;;;;17.28;32.18;102114.56;5058172;28;1470;-60
2022/01/24 11:45:04;;;;;;;;;;;;;;;16.78;33.15;102109.66;5057000;28;1332;-61
2022/01/24 11:47:31;;;;;;;;;;;;;;;16.83;33.20;102103.44;5070292;28;1369;-58
2022/01/24 11:49:57;;;;;;;;;;;;;;;16.84;33.27;102097.69;5058665;28;1355;-60
2022/01/24 11:52:30;;;;;;;;;;;;;;;17.19;32.53;102095.94;5059438;28;1536;-59
2022/01/24 11:55:14;;;;;;;;;;;;;;;17.48;31.89;102104.19;5056544;28;1354;-58
2022/01/24 11:57:45;;;;;;;;;;;;;;;17.54;31.63;102104.00;5058185;28;1961;-58
2022/01/24 12:00:10;;;;;;;;;;;;;;;17.05;32.78;102098.16;5057139;28;1548;-58
2022/01/24 12:02:39;;;;;;;;;;;;;;;16.69;33.40;102100.97;5059139;28;1406;-56
2022/01/24 12:05:11;;;;;;;;;;;;;;;16.55;33.52;102107.78;5062910;28;1389;-61
2022/01/24 12:07:46;;;;;;;;;;;;;;;17.95;31.16;102109.44;5065309;28;1265;-58
2022/01/24 12:10:21;;;;;;;;;;;;;;;19.09;29.40;102111.84;5057043;28;1531;-57
2022/01/24 12:12:48;;;;;;;;;;;;;;;19.06;29.29;102110.44;5069289;28;1334;-61
2022/01/24 12:15:34;;;;;;;;;;;;;;;19.37;28.70;102113.53;5063245;28;1543;-55
2022/01/24 12:18:01;;;;;;;;;;;;;;;18.29;30.58;102121.25;5053780;28;1243;-56
2022/01/24 12:20:30;;;;;;;;;;;;;;;17.65;31.79;102105.03;5057928;28;1528;-56
2022/01/24 12:22:56;;;;;;;;;;;;;;;17.21;32.54;102107.56;5057423;28;1432;-57
2022/01/24 12:25:45;;;;;;;;;;;;;;;16.94;32.97;102127.34;5059383;28;1405;-57
2022/01/24 12:28:20;;;;;;;;;;;;;;;16.83;33.46;102123.53;5046253;28;1782;-57
2022/01/24 12:31:01;;;;;;;;;;;;;;;17.14;32.80;102120.56;5056899;28;1092;-61
2022/01/24 12:33:30;;;;;;;;;;;;;;;17.56;31.88;102120.31;5057766;28;1299;-58
2022/01/24 12:35:55;;;;;;;;;;;;;;;17.71;31.62;102123.31;5055064;28;1992;-58
2022/01/24 12:38:21;;;;;;;;;;;;;;;17.27;32.40;102120.31;5053634;28;1259;-59
2022/01/24 12:40:47;;;;;;;;;;;;;;;16.89;33.27;102121.75;5053284;28;1256;-58
2022/01/24 12:43:28;;;;;;;;;;;;;;;16.67;33.71;102122.34;5049922;28;1421;-60
2022/01/24 12:48:37;;;;;;;;;;;;;;;17.51;32.15;102125.69;5059043;28;1009;-57
2022/01/24 12:51:03;;;;;;;;;;;;;;;17.33;32.42;102130.31;5058442;28;1164;-58
2022/01/24 12:53:28;;;;;;;;;;;;;;;17.13;32.54;102124.44;5040197;28;1258;-58
2022/01/24 12:55:58;;;;;;;;;;;;;;;16.98;32.95;102128.50;5051192;28;1906;-58
2022/01/24 12:58:39;;;;;;;;;;;;;;;17.02;33.10;102124.22;5041971;28;1210;-59
2022/01/24 13:01:25;;;;;;;;;;;;;;;17.21;32.69;102121.28;5058430;28;1242;-58
2022/01/24 13:03:56;;;;;;;;;;;;;;;17.43;32.02;102127.78;5059577;28;1472;-58
2022/01/24 13:06:21;;;;;;;;;;;;;;;17.97;31.03;102122.94;5055768;28;1235;-58
2022/01/24 13:08:54;;;;;;;;;;;;;;;17.22;32.37;102122.94;5054723;28;1235;-58
2022/01/24 13:11:19;;;;;;;;;;;;;;;16.76;33.24;102126.41;5054690;28;1322;-58
2022/01/24 13:14:08;;;;;;;;;;;;;;;16.61;33.52;102123.31;5041769;28;1251;-57
2022/01/24 13:22:23;;;;;;;;;;;;;;;19.56;28.78;102121.44;5056875;28;1280;-58
2022/01/24 13:25:01;;;;;;;;;;;;;;;18.70;29.83;102122.91;5055681;28;1386;-60
2022/01/24 13:27:53;;;;;;;;;;;;;;;17.94;31.03;102124.28;5055054;28;1300;-58
2022/01/24 13:30:22;;;;;;;;;;;;;;;17.36;32.25;102124.34;5056284;28;1290;-57
2022/01/24 13:32:51;;;;;;;;;;;;;;;16.77;33.19;102122.59;5053517;28;1283;-57
2022/01/24 13:35:24;;;;;;;;;;;;;;;17.40;32.56;102125.50;5058489;28;1310;-57
2022/01/24 13:37:49;;;;;;;;;;;;;;;19.31;29.13;102122.84;5056615;28;1984;-58
2022/01/24 13:40:15;;;;;;;;;;;;;;;19.05;29.43;102125.31;5052945;28;1195;-57
2022/01/24 13:42:40;;;;;;;;;;;;;;;19.80;28.17;102128.31;5059648;28;1226;-58
2022/01/24 13:45:06;;;;;;;;;;;;;;;19.39;28.89;102130.66;5055940;28;1493;-57
2022/01/24 13:47:32;;;;;;;;;;;;;;;18.52;30.25;102135.06;5053288;28;1417;-58
2022/01/24 13:49:57;;;;;;;;;;;;;;;17.97;31.20;102140.28;5064436;28;1330;-59
2022/01/24 13:52:29;;;;;;;;;;;;;;;17.40;32.06;102142.03;5058572;28;1259;-58
2022/01/24 13:54:55;;;;;;;;;;;;;;;17.12;32.53;102153.81;5052393;28;1469;-57
2022/01/24 13:57:20;;;;;;;;;;;;;;;16.92;33.11;102155.06;5036273;28;1910;-56
2022/01/24 13:59:46;;;;;;;;;;;;;;;17.25;32.51;102152.69;5049832;28;1493;-58
2022/01/24 14:02:15;;;;;;;;;;;;;;;17.45;32.37;102152.28;5043925;28;1405;-59
2022/01/24 14:04:52;;;;;;;;;;;;;;;17.85;31.62;102154.09;5064767;28;911;-58
2022/01/24 14:07:21;;;;;;;;;;;;;;;17.89;31.25;102151.66;5064573;28;1246;-57
2022/01/24 14:10:05;;;;;;;;;;;;;;;17.34;32.29;102159.47;5058023;28;971;-55
2022/01/24 14:12:40;;;;;;;;;;;;;;;16.91;33.03;102161.66;5056710;28;1219;-54
2022/01/24 14:15:19;;;;;;;;;;;;;;;16.99;32.78;102157.66;5056092;28;1211;-55
2022/01/24 14:18:18;;;;;;;;;;;;;;;17.31;32.60;102154.47;5067499;28;1906;-55
2022/01/24 14:20:39;;;;;;;;;;;;;;;17.39;32.04;102154.09;5075724;28;1332;-55
2022/01/24 14:23:04;;;;;;;;;;;;;;;17.77;31.34;102152.56;5060791;28;1439;-54
2022/01/24 14:25:31;;;;;;;;;;;;;;;17.52;31.92;102150.19;5051890;28;1223;-56
2022/01/24 14:28:06;;;;;;;;;;;;;;;17.14;32.93;102143.44;5056507;28;1560;-56
2022/01/24 14:30:42;;;;;;;;;;;;;;;16.99;33.13;102160.41;5054092;28;1354;-54
2022/01/24 14:33:11;;;;;;;;;;;;;;;17.65;31.90;102167.47;5057142;28;1447;-54
2022/01/24 14:35:56;;;;;;;;;;;;;;;19.20;29.52;102156.94;5070146;28;1312;-54
2022/01/24 14:38:29;;;;;;;;;;;;;;;20.21;27.80;102154.59;5057838;28;1429;-56
2022/01/24 14:40:56;;;;;;;;;;;;;;;20.11;27.85;102150.66;5053647;28;1238;-55
2022/01/24 14:46:10;;;;;;;;;;;;;;;20.04;27.84;102160.28;5050024;28;1254;-58
2022/01/24 14:48:42;;;;;;;;;;;;;;;18.78;30.03;102161.06;5069745;28;1272;-54
2022/01/24 14:51:07;;;;;;;;;;;;;;;18.81;29.89;102166.88;5070268;28;802;-56